sensor_id;sensor_type;location;lat;lon;timestamp;pressure;altitude;pressure_sealevel;temperature;humidity
11936;BME280;6027;48.576;9.180;2023-05-16T00:01:43;96556.03;;;10.82;100.00
11936;BME280;6027;48.576;9.180;2023-05-16T00:04:09;96555.03;;;10.83;100.00
11936;BME280;6027;48.576;9.180;2023-05-16T00:06:34;96561.19;;;10.90;100.00
11936;BME280;6027;48.576;9.180;2023-05-16T00:09:00;96557.03;;;10.81;100.00
11936;BME280;6027;48.576;9.180;2023-05-16T00:11:25;96559.31;;;10.84;100.00
11936;BME280;6027;48.576;9.180;2023-05-16T00:13:51;96549.53;;;10.84;100.00
11936;BME280;6027;48.576;9.180;2023-05-16T00:16:17;96556.47;;;10.85;100.00
11936;BME280;6027;48.576;9.180;2023-05-16T00:18:45;96558.19;;;10.93;100.00
11936;BME280;6027;48.576;9.180;2023-05-16T00:21:11;96551.69;;;10.95;100.00
11936;BME280;6027;48.576;9.180;2023-05-16T00:23:36;96551.69;;;10.95;100.00
11936;BME280;6027;48.576;9.180;2023-05-16T00:26:02;96544.75;;;10.94;100.00
11936;BME280;6027;48.576;9.180;2023-05-16T00:28:28;96541.47;;;10.92;100.00
11936;BME280;6027;48.576;9.180;2023-05-16T00:30:54;96547.78;;;10.91;100.00
11936;BME280;6027;48.576;9.180;2023-05-16T00:33:19;96550.03;;;10.94;100.00
11936;BME280;6027;48.576;9.180;2023-05-16T00:35:45;96546.16;;;10.97;100.00
11936;BME280;6027;48.576;9.180;2023-05-16T00:38:10;96559.63;;;10.95;100.00
11936;BME280;6027;48.576;9.180;2023-05-16T00:40:36;96557.78;;;10.96;100.00
11936;BME280;6027;48.576;9.180;2023-05-16T00:43:02;96559.41;;;10.97;100.00
11936;BME280;6027;48.576;9.180;2023-05-16T00:45:28;96558.63;;;10.96;100.00
11936;BME280;6027;48.576;9.180;2023-05-16T00:47:54;96560.00;;;10.92;100.00
11936;BME280;6027;48.576;9.180;2023-05-16T00:50:19;96555.34;;;10.94;100.00
11936;BME280;6027;48.576;9.180;2023-05-16T00:52:45;96552.88;;;10.93;100.00
11936;BME280;6027;48.576;9.180;2023-05-16T00:55:11;96562.66;;;10.92;100.00
11936;BME280;6027;48.576;9.180;2023-05-16T01:00:06;96554.66;;;10.86;100.00
11936;BME280;6027;48.576;9.180;2023-05-16T01:02:35;96550.53;;;10.83;100.00
11936;BME280;6027;48.576;9.180;2023-05-16T01:05:01;96556.41;;;10.79;100.00
11936;BME280;6027;48.576;9.180;2023-05-16T01:07:30;96554.81;;;10.56;100.00
11936;BME280;6027;48.576;9.180;2023-05-16T01:09:55;96555.38;;;10.52;100.00
11936;BME280;6027;48.576;9.180;2023-05-16T01:12:36;96547.28;;;10.60;100.00
11936;BME280;6027;48.576;9.180;2023-05-16T01:17:41;96542.88;;;10.67;100.00
11936;BME280;6027;48.576;9.180;2023-05-16T01:23:14;96537.59;;;10.67;100.00
11936;BME280;6027;48.576;9.180;2023-05-16T01:28:18;96542.13;;;10.73;100.00
11936;BME280;6027;48.576;9.180;2023-05-16T01:30:44;96532.28;;;10.67;100.00
11936;BME280;6027;48.576;9.180;2023-05-16T01:33:10;96542.88;;;10.67;100.00
11936;BME280;6027;48.576;9.180;2023-05-16T01:35:43;96545.53;;;10.67;100.00
11936;BME280;6027;48.576;9.180;2023-05-16T01:38:25;96547.16;;;10.68;100.00
11936;BME280;6027;48.576;9.180;2023-05-16T01:43:20;96547.41;;;10.73;100.00
11936;BME280;6027;48.576;9.180;2023-05-16T01:45:54;96546.41;;;10.74;100.00
11936;BME280;6027;48.576;9.180;2023-05-16T01:48:26;96553.97;;;10.77;100.00
11936;BME280;6027;48.576;9.180;2023-05-16T01:50:55;96557.66;;;10.83;100.00
11936;BME280;6027;48.576;9.180;2023-05-16T01:53:26;96543.78;;;10.81;100.00
11936;BME280;6027;48.576;9.180;2023-05-16T01:55:55;96546.34;;;10.67;100.00
11936;BME280;6027;48.576;9.180;2023-05-16T01:58:25;96548.00;;;10.68;100.00
11936;BME280;6027;48.576;9.180;2023-05-16T02:00:52;96549.25;;;10.72;100.00
11936;BME280;6027;48.576;9.180;2023-05-16T02:03:18;96548.63;;;10.70;100.00
11936;BME280;6027;48.576;9.180;2023-05-16T02:05:43;96545.41;;;10.75;100.00
11936;BME280;6027;48.576;9.180;2023-05-16T02:08:09;96543.38;;;10.77;100.00
11936;BME280;6027;48.576;9.180;2023-05-16T02:10:34;96546.22;;;10.76;100.00
11936;BME280;6027;48.576;9.180;2023-05-16T02:13:00;96548.88;;;10.76;100.00
11936;BME280;6027;48.576;9.180;2023-05-16T02:15:25;96545.00;;;10.78;100.00
11936;BME280;6027;48.576;9.180;2023-05-16T02:17:51;96549.28;;;10.79;100.00
11936;BME280;6027;48.576;9.180;2023-05-16T02:20:16;96548.91;;;10.82;100.00
11936;BME280;6027;48.576;9.180;2023-05-16T02:22:42;96549.34;;;10.86;100.00
11936;BME280;6027;48.576;9.180;2023-05-16T02:25:08;96555.28;;;10.88;100.00
11936;BME280;6027;48.576;9.180;2023-05-16T02:27:34;96549.72;;;10.83;100.00
11936;BME280;6027;48.576;9.180;2023-05-16T02:30:01;96550.16;;;10.86;100.00
11936;BME280;6027;48.576;9.180;2023-05-16T02:32:26;96564.84;;;10.89;100.00
11936;BME280;6027;48.576;9.180;2023-05-16T02:34:52;96560.13;;;10.84;100.00
11936;BME280;6027;48.576;9.180;2023-05-16T02:37:17;96556.47;;;10.85;100.00
11936;BME280;6027;48.576;9.180;2023-05-16T02:39:42;96551.53;;;10.76;100.00
11936;BME280;6027;48.576;9.180;2023-05-16T02:42:08;96554.63;;;10.58;100.00
11936;BME280;6027;48.576;9.180;2023-05-16T02:44:33;96553.34;;;10.75;100.00
11936;BME280;6027;48.576;9.180;2023-05-16T02:46:59;96556.50;;;10.64;100.00
11936;BME280;6027;48.576;9.180;2023-05-16T02:49:24;96555.09;;;10.68;100.00
11936;BME280;6027;48.576;9.180;2023-05-16T02:51:50;96557.00;;;10.74;100.00
11936;BME280;6027;48.576;9.180;2023-05-16T02:54:16;96548.25;;;10.73;100.00
11936;BME280;6027;48.576;9.180;2023-05-16T02:56:41;96559.06;;;10.79;100.00
11936;BME280;6027;48.576;9.180;2023-05-16T02:59:07;96548.47;;;10.79;100.00
11936;BME280;6027;48.576;9.180;2023-05-16T03:01:33;96549.91;;;10.81;100.00
11936;BME280;6027;48.576;9.180;2023-05-16T03:03:58;96547.53;;;10.86;100.00
11936;BME280;6027;48.576;9.180;2023-05-16T03:06:24;96551.63;;;10.89;100.00
11936;BME280;6027;48.576;9.180;2023-05-16T03:08:49;96545.00;;;10.78;100.00
11936;BME280;6027;48.576;9.180;2023-05-16T03:11:16;96542.16;;;10.80;100.00
11936;BME280;6027;48.576;9.180;2023-05-16T03:13:44;96546.69;;;10.86;100.00
11936;BME280;6027;48.576;9.180;2023-05-16T03:16:10;96550.34;;;10.85;100.00
11936;BME280;6027;48.576;9.180;2023-05-16T03:18:36;96545.69;;;10.87;100.00
11936;BME280;6027;48.576;9.180;2023-05-16T03:21:01;96551.56;;;10.82;100.00
11936;BME280;6027;48.576;9.180;2023-05-16T03:23:27;96556.91;;;10.89;100.00
11936;BME280;6027;48.576;9.180;2023-05-16T03:25:53;96551.63;;;10.89;100.00
11936;BME280;6027;48.576;9.180;2023-05-16T03:28:18;96559.50;;;10.82;100.00
11936;BME280;6027;48.576;9.180;2023-05-16T03:30:44;96552.47;;;10.68;100.00
11936;BME280;6027;48.576;9.180;2023-05-16T03:33:09;96554.16;;;10.76;100.00
11936;BME280;6027;48.576;9.180;2023-05-16T03:35:35;96546.22;;;10.76;100.00
11936;BME280;6027;48.576;9.180;2023-05-16T03:38:01;96553.97;;;10.77;100.00
11936;BME280;6027;48.576;9.180;2023-05-16T03:40:27;96551.13;;;10.79;100.00
11936;BME280;6027;48.576;9.180;2023-05-16T03:42:52;96552.13;;;10.78;100.00
11936;BME280;6027;48.576;9.180;2023-05-16T03:45:18;96554.78;;;10.78;100.00
11936;BME280;6027;48.576;9.180;2023-05-16T03:47:43;96550.28;;;10.78;100.00
11936;BME280;6027;48.576;9.180;2023-05-16T03:50:09;96550.25;;;10.71;100.00
11936;BME280;6027;48.576;9.180;2023-05-16T03:52:35;96555.19;;;10.75;100.00
11936;BME280;6027;48.576;9.180;2023-05-16T03:55:01;96553.16;;;10.77;100.00
11936;BME280;6027;48.576;9.180;2023-05-16T03:57:32;96557.22;;;10.79;100.00
11936;BME280;6027;48.576;9.180;2023-05-16T03:59:58;96557.22;;;10.79;100.00
11936;BME280;6027;48.576;9.180;2023-05-16T04:02:23;96560.28;;;10.76;100.00
11936;BME280;6027;48.576;9.180;2023-05-16T04:04:48;96565.81;;;10.81;100.00
11936;BME280;6027;48.576;9.180;2023-05-16T04:07:14;96567.44;;;10.82;100.00
11936;BME280;6027;48.576;9.180;2023-05-16T04:09:39;96571.09;;;10.81;100.00
11936;BME280;6027;48.576;9.180;2023-05-16T04:12:05;96572.94;;;10.81;100.00
11936;BME280;6027;48.576;9.180;2023-05-16T04:14:31;96578.66;;;10.84;100.00
11936;BME280;6027;48.576;9.180;2023-05-16T04:16:56;96576.66;;;10.86;100.00
11936;BME280;6027;48.576;9.180;2023-05-16T04:19:22;96578.47;;;10.86;100.00
11936;BME280;6027;48.576;9.180;2023-05-16T04:21:47;96587.06;;;10.88;100.00
11936;BME280;6027;48.576;9.180;2023-05-16T04:24:13;96582.56;;;10.88;100.00
11936;BME280;6027;48.576;9.180;2023-05-16T04:26:38;96579.38;;;10.93;100.00
11936;BME280;6027;48.576;9.180;2023-05-16T04:29:04;96579.56;;;10.91;100.00
11936;BME280;6027;48.576;9.180;2023-05-16T04:33:57;96572.44;;;10.92;100.00
11936;BME280;6027;48.576;9.180;2023-05-16T04:36:23;96584.06;;;10.97;100.00
11936;BME280;6027;48.576;9.180;2023-05-16T04:38:48;96584.28;;;10.96;100.00
11936;BME280;6027;48.576;9.180;2023-05-16T04:41:14;96579.41;;;10.99;100.00
11936;BME280;6027;48.576;9.180;2023-05-16T04:43:40;96576.34;;;10.96;100.00
11936;BME280;6027;48.576;9.180;2023-05-16T04:46:06;96575.75;;;11.00;100.00
11936;BME280;6027;48.576;9.180;2023-05-16T04:48:32;96574.28;;;10.98;100.00
11936;BME280;6027;48.576;9.180;2023-05-16T04:50:58;96573.72;;;11.02;100.00
11936;BME280;6027;48.576;9.180;2023-05-16T04:53:23;96575.75;;;11.00;100.00
11936;BME280;6027;48.576;9.180;2023-05-16T04:55:49;96569.00;;;10.98;100.00
11936;BME280;6027;48.576;9.180;2023-05-16T04:58:14;96573.88;;;10.94;100.00
11936;BME280;6027;48.576;9.180;2023-05-16T05:00:40;96576.13;;;10.97;100.00
11936;BME280;6027;48.576;9.180;2023-05-16T05:03:05;96569.25;;;11.03;100.00
11936;BME280;6027;48.576;9.180;2023-05-16T05:05:31;96581.22;;;10.99;100.00
11936;BME280;6027;48.576;9.180;2023-05-16T05:07:57;96582.69;;;11.01;100.00
11936;BME280;6027;48.576;9.180;2023-05-16T05:10:23;96583.69;;;11.00;100.00
11936;BME280;6027;48.576;9.180;2023-05-16T05:12:48;96587.16;;;11.01;100.00
11936;BME280;6027;48.576;9.180;2023-05-16T05:15:14;96584.94;;;11.04;100.00
11936;BME280;6027;48.576;9.180;2023-05-16T05:17:39;96586.59;;;11.05;100.00
11936;BME280;6027;48.576;9.180;2023-05-16T05:20:05;96597.38;;;11.04;100.00
11936;BME280;6027;48.576;9.180;2023-05-16T05:22:34;96597.81;;;11.07;100.00
11936;BME280;6027;48.576;9.180;2023-05-16T05:25:00;96600.91;;;11.11;100.00
11936;BME280;6027;48.576;9.180;2023-05-16T05:27:25;96599.69;;;11.14;100.00
11936;BME280;6027;48.576;9.180;2023-05-16T05:29:51;96605.63;;;11.16;100.00
11936;BME280;6027;48.576;9.180;2023-05-16T05:32:17;96604.38;;;11.12;100.00
11936;BME280;6027;48.576;9.180;2023-05-16T05:34:42;96600.72;;;11.13;100.00
11936;BME280;6027;48.576;9.180;2023-05-16T05:37:08;96610.50;;;11.12;100.00
11936;BME280;6027;48.576;9.180;2023-05-16T05:39:33;96605.00;;;11.14;100.00
11936;BME280;6027;48.576;9.180;2023-05-16T05:42:00;96607.94;;;11.25;100.00
11936;BME280;6027;48.576;9.180;2023-05-16T05:44:28;96613.88;;;11.27;100.00
11936;BME280;6027;48.576;9.180;2023-05-16T05:46:54;96601.34;;;11.15;100.00
11936;BME280;6027;48.576;9.180;2023-05-16T05:49:19;96604.84;;;11.22;100.00
11936;BME280;6027;48.576;9.180;2023-05-16T05:51:45;96599.53;;;11.22;100.00
11936;BME280;6027;48.576;9.180;2023-05-16T05:54:10;96603.84;;;11.23;100.00
11936;BME280;6027;48.576;9.180;2023-05-16T05:56:36;96607.25;;;11.17;100.00
11936;BME280;6027;48.576;9.180;2023-05-16T05:59:01;96602.97;;;11.16;100.00
11936;BME280;6027;48.576;9.180;2023-05-16T06:01:26;96606.00;;;11.13;100.00
11936;BME280;6027;48.576;9.180;2023-05-16T06:03:52;96614.81;;;11.20;100.00
11936;BME280;6027;48.576;9.180;2023-05-16T06:06:18;96610.88;;;11.09;100.00
11936;BME280;6027;48.576;9.180;2023-05-16T06:08:43;96611.94;;;11.15;100.00
11936;BME280;6027;48.576;9.180;2023-05-16T06:11:08;96611.16;;;11.21;100.00
11936;BME280;6027;48.576;9.180;2023-05-16T06:13:34;96613.03;;;11.27;100.00
11936;BME280;6027;48.576;9.180;2023-05-16T06:15:59;96622.81;;;11.26;100.00
11936;BME280;6027;48.576;9.180;2023-05-16T06:18:25;96615.56;;;11.35;100.00
11936;BME280;6027;48.576;9.180;2023-05-16T06:20:51;96615.16;;;11.38;100.00
11936;BME280;6027;48.576;9.180;2023-05-16T06:23:17;96619.59;;;11.31;100.00
11936;BME280;6027;48.576;9.180;2023-05-16T06:25:42;96629.19;;;11.32;100.00
11936;BME280;6027;48.576;9.180;2023-05-16T06:28:08;96620.88;;;11.35;100.00
11936;BME280;6027;48.576;9.180;2023-05-16T06:30:33;96618.22;;;11.35;100.00
11936;BME280;6027;48.576;9.180;2023-05-16T06:32:59;96630.28;;;11.44;100.00
11936;BME280;6027;48.576;9.180;2023-05-16T06:35:24;96638.38;;;11.36;100.00
11936;BME280;6027;48.576;9.180;2023-05-16T06:37:50;96636.97;;;11.33;100.00
11936;BME280;6027;48.576;9.180;2023-05-16T06:40:15;96628.19;;;11.33;100.00
11936;BME280;6027;48.576;9.180;2023-05-16T06:42:40;96636.97;;;11.40;100.00
11936;BME280;6027;48.576;9.180;2023-05-16T06:45:06;96637.19;;;11.38;100.00
11936;BME280;6027;48.576;9.180;2023-05-16T06:47:32;96633.94;;;11.43;100.00
11936;BME280;6027;48.576;9.180;2023-05-16T06:49:58;96638.00;;;11.39;100.00
11936;BME280;6027;48.576;9.180;2023-05-16T06:52:24;96640.50;;;11.47;100.00
11936;BME280;6027;48.576;9.180;2023-05-16T06:54:49;96632.94;;;11.44;100.00
11936;BME280;6027;48.576;9.180;2023-05-16T06:57:15;96641.47;;;11.39;100.00
11936;BME280;6027;48.576;9.180;2023-05-16T06:59:41;96630.22;;;11.31;100.00
11936;BME280;6027;48.576;9.180;2023-05-16T07:02:07;96631.66;;;11.33;100.00
11936;BME280;6027;48.576;9.180;2023-05-16T07:04:32;96631.06;;;11.38;100.00
11936;BME280;6027;48.576;9.180;2023-05-16T07:07:00;96631.94;;;11.45;100.00
11936;BME280;6027;48.576;9.180;2023-05-16T07:09:26;96631.75;;;11.47;100.00
11936;BME280;6027;48.576;9.180;2023-05-16T07:11:51;96628.84;;;11.41;100.00
11936;BME280;6027;48.576;9.180;2023-05-16T07:14:17;96631.75;;;11.47;100.00
11936;BME280;6027;48.576;9.180;2023-05-16T07:16:42;96627.25;;;11.47;100.00
11936;BME280;6027;48.576;9.180;2023-05-16T07:19:08;96630.53;;;11.49;100.00
11936;BME280;6027;48.576;9.180;2023-05-16T07:21:33;96629.28;;;11.45;100.00
11936;BME280;6027;48.576;9.180;2023-05-16T07:23:59;96627.25;;;11.47;100.00
11936;BME280;6027;48.576;9.180;2023-05-16T07:26:24;96637.47;;;11.50;100.00
11936;BME280;6027;48.576;9.180;2023-05-16T07:28:50;96635.66;;;11.51;100.00
11936;BME280;6027;48.576;9.180;2023-05-16T07:31:16;96643.00;;;11.55;100.00
11936;BME280;6027;48.576;9.180;2023-05-16T07:33:43;96637.47;;;11.50;100.00
11936;BME280;6027;48.576;9.180;2023-05-16T07:36:09;96642.63;;;11.58;100.00
11936;BME280;6027;48.576;9.180;2023-05-16T07:38:35;96631.75;;;11.47;100.00
11936;BME280;6027;48.576;9.180;2023-05-16T07:41:00;96644.63;;;11.50;100.00
11936;BME280;6027;48.576;9.180;2023-05-16T07:43:26;96649.28;;;11.48;100.00
11936;BME280;6027;48.576;9.180;2023-05-16T07:45:52;96650.94;;;11.49;100.00
11936;BME280;6027;48.576;9.180;2023-05-16T07:48:17;96654.84;;;11.59;100.00
11936;BME280;6027;48.576;9.180;2023-05-16T07:50:43;96654.66;;;11.54;100.00
11936;BME280;6027;48.576;9.180;2023-05-16T07:53:09;96654.84;;;11.53;100.00
11936;BME280;6027;48.576;9.180;2023-05-16T07:55:34;96658.31;;;11.53;100.00
11936;BME280;6027;48.576;9.180;2023-05-16T07:58:00;96659.59;;;11.64;100.00
11936;BME280;6027;48.576;9.180;2023-05-16T08:00:25;96669.31;;;11.57;100.00
11936;BME280;6027;48.576;9.180;2023-05-16T08:02:51;96664.66;;;11.59;100.00
11936;BME280;6027;48.576;9.180;2023-05-16T08:05:16;96665.84;;;11.56;100.00
11936;BME280;6027;48.576;9.180;2023-05-16T08:07:42;96664.47;;;11.60;100.00
11936;BME280;6027;48.576;9.180;2023-05-16T08:12:35;96661.16;;;11.52;100.00
11936;BME280;6027;48.576;9.180;2023-05-16T08:15:02;96668.91;;;11.53;100.00
11936;BME280;6027;48.576;9.180;2023-05-16T08:17:28;96671.31;;;11.48;100.00
11936;BME280;6027;48.576;9.180;2023-05-16T08:19:53;96673.53;;;11.45;100.00
11936;BME280;6027;48.576;9.180;2023-05-16T08:22:18;96665.00;;;11.49;100.00
11936;BME280;6027;48.576;9.180;2023-05-16T08:24:44;96676.88;;;11.53;100.00
11936;BME280;6027;48.576;9.180;2023-05-16T08:27:09;96669.22;;;11.43;100.00
11936;BME280;6027;48.576;9.180;2023-05-16T08:29:36;96670.25;;;11.42;100.00
11936;BME280;6027;48.576;9.180;2023-05-16T08:32:01;96665.75;;;11.43;100.00
11936;BME280;6027;48.576;9.180;2023-05-16T08:34:30;96674.16;;;11.47;100.00
11936;BME280;6027;48.576;9.180;2023-05-16T08:36:56;96672.91;;;11.42;100.00
11936;BME280;6027;48.576;9.180;2023-05-16T08:39:21;96677.19;;;11.43;100.00
11936;BME280;6027;48.576;9.180;2023-05-16T08:41:47;96689.06;;;11.48;100.00
11936;BME280;6027;48.576;9.180;2023-05-16T08:44:12;96679.91;;;11.50;100.00
11936;BME280;6027;48.576;9.180;2023-05-16T08:46:49;96682.56;;;11.50;100.00
11936;BME280;6027;48.576;9.180;2023-05-16T08:49:15;96694.81;;;11.58;100.00
11936;BME280;6027;48.576;9.180;2023-05-16T08:51:41;96691.97;;;11.53;100.00
11936;BME280;6027;48.576;9.180;2023-05-16T08:54:12;96696.25;;;11.54;100.00
11936;BME280;6027;48.576;9.180;2023-05-16T08:56:40;96694.00;;;11.57;100.00
11936;BME280;6027;48.576;9.180;2023-05-16T08:59:06;96694.88;;;11.64;100.00
11936;BME280;6027;48.576;9.180;2023-05-16T09:01:32;96700.56;;;11.61;100.00
11936;BME280;6027;48.576;9.180;2023-05-16T09:03:58;96698.28;;;11.58;100.00
11936;BME280;6027;48.576;9.180;2023-05-16T09:06:24;96702.56;;;11.53;100.00
11936;BME280;6027;48.576;9.180;2023-05-16T09:08:51;96696.84;;;11.56;100.00
11936;BME280;6027;48.576;9.180;2023-05-16T09:11:17;96699.31;;;11.57;100.00
11936;BME280;6027;48.576;9.180;2023-05-16T09:13:43;96705.03;;;11.54;100.00
11936;BME280;6027;48.576;9.180;2023-05-16T09:16:21;96710.09;;;11.56;100.00
11936;BME280;6027;48.576;9.180;2023-05-16T09:18:55;96701.94;;;11.51;100.00
11936;BME280;6027;48.576;9.180;2023-05-16T09:21:22;96703.06;;;11.41;100.00
11936;BME280;6027;48.576;9.180;2023-05-16T09:23:48;96705.59;;;11.50;100.00
11936;BME280;6027;48.576;9.180;2023-05-16T09:26:14;96705.69;;;11.35;100.00
11936;BME280;6027;48.576;9.180;2023-05-16T09:28:40;96710.88;;;11.50;100.00
11936;BME280;6027;48.576;9.180;2023-05-16T09:31:23;96710.25;;;11.48;100.00
11936;BME280;6027;48.576;9.180;2023-05-16T09:33:55;96709.38;;;11.40;100.00
11936;BME280;6027;48.576;9.180;2023-05-16T09:36:20;96711.47;;;11.45;100.00
11936;BME280;6027;48.576;9.180;2023-05-16T09:38:46;96715.75;;;11.46;100.00
11936;BME280;6027;48.576;9.180;2023-05-16T09:41:12;96723.69;;;11.46;100.00
11936;BME280;6027;48.576;9.180;2023-05-16T09:43:39;96722.06;;;11.45;100.00
11936;BME280;6027;48.576;9.180;2023-05-16T09:46:05;96719.53;;;11.37;100.00
11936;BME280;6027;48.576;9.180;2023-05-16T09:48:33;96720.31;;;11.31;100.00
11936;BME280;6027;48.576;9.180;2023-05-16T09:50:59;96720.03;;;11.47;100.00
11936;BME280;6027;48.576;9.180;2023-05-16T09:53:32;96715.47;;;11.34;100.00
11936;BME280;6027;48.576;9.180;2023-05-16T09:56:10;96718.53;;;11.38;100.00
11936;BME280;6027;48.576;9.180;2023-05-16T09:58:39;96725.09;;;11.42;100.00
11936;BME280;6027;48.576;9.180;2023-05-16T10:01:05;96716.13;;;11.43;100.00
11936;BME280;6027;48.576;9.180;2023-05-16T10:03:34;96713.66;;;11.41;100.00
11936;BME280;6027;48.576;9.180;2023-05-16T10:06:00;96719.59;;;11.43;100.00
11936;BME280;6027;48.576;9.180;2023-05-16T10:08:26;96715.94;;;11.45;100.00
11936;BME280;6027;48.576;9.180;2023-05-16T10:10:53;96716.94;;;11.43;100.00
11936;BME280;6027;48.576;9.180;2023-05-16T10:13:31;96714.50;;;11.42;100.00
11936;BME280;6027;48.576;9.180;2023-05-16T10:15:59;96706.69;;;11.34;100.00
11936;BME280;6027;48.576;9.180;2023-05-16T10:18:29;96713.81;;;11.33;100.00
11936;BME280;6027;48.576;9.180;2023-05-16T10:20:57;96713.47;;;11.43;100.00
11936;BME280;6027;48.576;9.180;2023-05-16T10:23:26;96716.75;;;11.45;100.00
11936;BME280;6027;48.576;9.180;2023-05-16T10:25:54;96715.06;;;11.37;100.00
11936;BME280;6027;48.576;9.180;2023-05-16T10:28:22;96716.28;;;11.35;100.00
11936;BME280;6027;48.576;9.180;2023-05-16T10:30:50;96719.13;;;11.33;100.00
11936;BME280;6027;48.576;9.180;2023-05-16T10:33:17;96719.22;;;11.47;100.00
11936;BME280;6027;48.576;9.180;2023-05-16T10:35:43;96719.78;;;11.42;100.00
11936;BME280;6027;48.576;9.180;2023-05-16T10:38:10;96722.50;;;11.49;100.00
11936;BME280;6027;48.576;9.180;2023-05-16T10:40:38;96714.19;;;11.52;100.00
11936;BME280;6027;48.576;9.180;2023-05-16T10:43:04;96720.28;;;11.52;100.00
11936;BME280;6027;48.576;9.180;2023-05-16T10:45:30;96718.88;;;11.56;100.00
11936;BME280;6027;48.576;9.180;2023-05-16T10:47:59;96705.88;;;11.61;100.00
11936;BME280;6027;48.576;9.180;2023-05-16T10:50:38;96715.22;;;11.57;100.00
11936;BME280;6027;48.576;9.180;2023-05-16T10:53:18;96719.50;;;11.58;100.00
11936;BME280;6027;48.576;9.180;2023-05-16T11:01:22;96718.50;;;11.59;100.00
11936;BME280;6027;48.576;9.180;2023-05-16T11:12:01;96706.03;;;11.53;100.00
11936;BME280;6027;48.576;9.180;2023-05-16T11:17:20;96725.44;;;11.60;100.00
11936;BME280;6027;48.576;9.180;2023-05-16T11:19:50;96732.00;;;11.64;100.00
11936;BME280;6027;48.576;9.180;2023-05-16T11:25:07;96726.91;;;11.63;100.00
11936;BME280;6027;48.576;9.180;2023-05-16T11:27:41;96729.47;;;11.56;100.00
11936;BME280;6027;48.576;9.180;2023-05-16T11:30:17;96728.28;;;11.59;100.00
11936;BME280;6027;48.576;9.180;2023-05-16T11:32:45;96733.66;;;11.65;100.00
11936;BME280;6027;48.576;9.180;2023-05-16T11:35:12;96729.94;;;11.60;100.00
11936;BME280;6027;48.576;9.180;2023-05-16T11:37:38;96735.03;;;11.61;100.00
11936;BME280;6027;48.576;9.180;2023-05-16T11:40:05;96732.13;;;11.56;100.00
11936;BME280;6027;48.576;9.180;2023-05-16T11:42:38;96733.84;;;11.64;100.00
11936;BME280;6027;48.576;9.180;2023-05-16T11:50:06;96738.97;;;11.65;100.00
11936;BME280;6027;48.576;9.180;2023-05-16T11:52:33;96737.56;;;11.69;100.00
11936;BME280;6027;48.576;9.180;2023-05-16T11:54:58;96742.69;;;11.71;100.00
11936;BME280;6027;48.576;9.180;2023-05-16T11:57:26;96736.75;;;11.69;100.00
11936;BME280;6027;48.576;9.180;2023-05-16T11:59:52;96741.34;;;11.60;100.00
11936;BME280;6027;48.576;9.180;2023-05-16T12:02:17;96746.41;;;11.55;100.00
11936;BME280;6027;48.576;9.180;2023-05-16T12:04:46;96747.44;;;11.54;100.00
11936;BME280;6027;48.576;9.180;2023-05-16T12:07:14;96745.41;;;11.56;100.00
11936;BME280;6027;48.576;9.180;2023-05-16T12:09:40;96744.16;;;11.52;100.00
11936;BME280;6027;48.576;9.180;2023-05-16T12:12:06;96748.22;;;11.55;100.00
11936;BME280;6027;48.576;9.180;2023-05-16T12:14:31;96748.38;;;11.47;100.00
11936;BME280;6027;48.576;9.180;2023-05-16T12:16:57;96755.19;;;11.56;100.00
11936;BME280;6027;48.576;9.180;2023-05-16T12:19:23;96753.50;;;11.48;100.00
11936;BME280;6027;48.576;9.180;2023-05-16T12:21:52;96752.41;;;11.42;100.00
11936;BME280;6027;48.576;9.180;2023-05-16T12:24:18;96753.25;;;11.43;100.00
11936;BME280;6027;48.576;9.180;2023-05-16T12:26:45;96756.34;;;11.47;100.00
11936;BME280;6027;48.576;9.180;2023-05-16T12:29:10;96763.47;;;11.46;100.00
11936;BME280;6027;48.576;9.180;2023-05-16T12:31:38;96756.34;;;11.47;100.00
11936;BME280;6027;48.576;9.180;2023-05-16T12:34:04;96765.13;;;11.47;100.00
11936;BME280;6027;48.576;9.180;2023-05-16T12:36:33;96759.47;;;11.35;100.00
11936;BME280;6027;48.576;9.180;2023-05-16T12:39:02;96760.31;;;11.36;100.00
11936;BME280;6027;48.576;9.180;2023-05-16T12:41:29;96761.13;;;11.36;100.00
11936;BME280;6027;48.576;9.180;2023-05-16T12:46:49;96741.34;;;11.32;100.00
11936;BME280;6027;48.576;9.180;2023-05-16T12:49:21;96755.78;;;11.30;100.00
11936;BME280;6027;48.576;9.180;2023-05-16T12:51:51;96754.19;;;11.35;100.00
11936;BME280;6027;48.576;9.180;2023-05-16T12:54:17;96747.75;;;11.45;100.00
11936;BME280;6027;48.576;9.180;2023-05-16T12:56:43;96760.75;;;11.39;100.00
11936;BME280;6027;48.576;9.180;2023-05-16T12:59:08;96768.97;;;11.45;100.00
11936;BME280;6027;48.576;9.180;2023-05-16T13:01:35;96770.34;;;11.40;100.00
11936;BME280;6027;48.576;9.180;2023-05-16T13:04:01;96772.19;;;11.40;100.00
11936;BME280;6027;48.576;9.180;2023-05-16T13:06:26;96777.16;;;11.28;100.00
11936;BME280;6027;48.576;9.180;2023-05-16T13:08:52;96780.28;;;11.32;100.00
11936;BME280;6027;48.576;9.180;2023-05-16T13:11:18;96774.78;;;11.33;100.00
11936;BME280;6027;48.576;9.180;2023-05-16T13:13:44;96778.56;;;11.24;100.00
11936;BME280;6027;48.576;9.180;2023-05-16T13:16:10;96777.44;;;11.33;100.00
11936;BME280;6027;48.576;9.180;2023-05-16T13:18:35;96774.97;;;11.32;100.00
11936;BME280;6027;48.576;9.180;2023-05-16T13:21:01;96782.28;;;11.30;100.00
11936;BME280;6027;48.576;9.180;2023-05-16T13:23:28;96780.56;;;11.22;100.00
11936;BME280;6027;48.576;9.180;2023-05-16T13:25:54;96781.38;;;11.23;100.00
11936;BME280;6027;48.576;9.180;2023-05-16T13:28:19;96789.16;;;11.24;100.00
11936;BME280;6027;48.576;9.180;2023-05-16T13:30:45;96786.22;;;11.19;100.00
11936;BME280;6027;48.576;9.180;2023-05-16T13:33:11;96792.88;;;11.30;100.00
11936;BME280;6027;48.576;9.180;2023-05-16T13:35:36;96793.56;;;11.38;100.00
11936;BME280;6027;48.576;9.180;2023-05-16T13:38:03;96788.72;;;11.42;100.00
11936;BME280;6027;48.576;9.180;2023-05-16T13:40:28;96787.69;;;11.43;100.00
11936;BME280;6027;48.576;9.180;2023-05-16T13:42:55;96801.09;;;11.35;100.00